Time;durP1;ratioP1;P1;durP2;ratioP2;P2;SDS_P1;SDS_P2;PMS_P1;PMS_P2;Temp;Humidity;BMP_temperature;BMP_pressure;BME280_temperature;BME280_humidity;BME280_pressure;Samples;Min_cycle;Max_cycle;Signal;HPM_P1;HPM_P2
2022/08/09 00:01:19;;;;;;;0.20;0.20;;;16.30;97.90;;;;;;5093244;28;20050;-76
2022/08/09 00:03:45;;;;;;;0.10;0.10;;;16.40;99.50;;;;;;5093369;28;20035;-75
2022/08/09 00:06:11;;;;;;;0.10;0.10;;;16.40;99.90;;;;;;5093086;28;20024;-76
2022/08/09 00:08:36;;;;;;;0.10;0.10;;;16.50;99.90;;;;;;5093205;28;20017;-76
2022/08/09 00:11:02;;;;;;;0.10;0.10;;;16.60;99.90;;;;;;5093154;28;20109;-75
2022/08/09 00:13:28;;;;;;;0.10;0.10;;;16.80;99.90;;;;;;5074931;28;20024;-75
2022/08/09 00:15:54;;;;;;;0.10;0.10;;;16.90;99.90;;;;;;5092937;28;20024;-76
2022/08/09 00:18:19;;;;;;;0.10;0.10;;;17.10;99.90;;;;;;5092975;28;20081;-76
2022/08/09 00:20:45;;;;;;;0.20;0.20;;;17.30;99.90;;;;;;5092949;28;20028;-76
2022/08/09 00:23:11;;;;;;;0.10;0.10;;;17.50;99.90;;;;;;5092885;28;20020;-76
2022/08/09 00:25:37;;;;;;;0.10;0.10;;;17.40;99.90;;;;;;5091342;28;20111;-76
2022/08/09 00:28:05;;;;;;;0.20;0.20;;;17.40;99.90;;;;;;5091572;28;20111;-76
2022/08/09 00:30:32;;;;;;;0.10;0.10;;;17.40;99.90;;;;;;5092751;28;20028;-76
2022/08/09 00:32:58;;;;;;;0.55;0.55;;;17.30;99.90;;;;;;5092950;28;20449;-76
2022/08/09 00:35:24;;;;;;;0.20;0.20;;;17.20;99.90;;;;;;5092536;28;20094;-75
2022/08/09 00:37:50;;;;;;;1.70;1.58;;;17.20;99.90;;;;;;5074578;28;20081;-76
2022/08/09 00:40:16;;;;;;;0.10;0.10;;;17.50;99.90;;;;;;5090873;28;20028;-76
2022/08/09 00:42:42;;;;;;;0.10;0.10;;;17.60;99.90;;;;;;5092538;28;20365;-75
2022/08/09 00:45:08;;;;;;;0.10;0.10;;;17.50;99.90;;;;;;5092464;28;20562;-76
2022/08/09 00:47:34;;;;;;;0.20;0.20;;;17.50;99.90;;;;;;5091365;28;20032;-76
2022/08/09 00:50:00;;;;;;;0.10;0.10;;;17.40;99.90;;;;;;5092519;28;20527;-76
2022/08/09 00:52:28;;;;;;;0.10;0.10;;;17.30;99.90;;;;;;5091204;28;20032;-76
2022/08/09 00:54:54;;;;;;;1.30;1.15;;;17.20;99.90;;;;;;5092358;28;20102;-76
2022/08/09 00:57:20;;;;;;;0.15;0.15;;;17.20;99.90;;;;;;5090880;28;20136;-76
2022/08/09 00:59:46;;;;;;;0.20;0.20;;;17.20;99.90;;;;;;5091195;28;20049;-76
2022/08/09 01:02:24;;;;;;;0.47;0.47;;;17.30;99.90;;;;;;5092188;28;20031;-76
2022/08/09 01:05:04;;;;;;;0.10;0.10;;;17.00;99.90;;;;;;5092241;28;20081;-76
2022/08/09 01:07:45;;;;;;;0.10;0.10;;;16.80;99.90;;;;;;5090923;28;20035;-76
2022/08/09 01:10:38;;;;;;;0.25;0.25;;;16.80;99.90;;;;;;5091025;28;20069;-76
2022/08/09 01:13:40;;;;;;;0.30;0.30;;;16.80;99.90;;;;;;5092135;28;20039;-75
2022/08/09 01:16:09;;;;;;;0.30;0.30;;;16.70;99.90;;;;;;5077422;28;20032;-76
2022/08/09 01:18:37;;;;;;;0.30;0.30;;;16.50;99.90;;;;;;5092068;28;20024;-76
2022/08/09 01:21:26;;;;;;;0.20;0.20;;;16.30;99.90;;;;;;5090823;28;20077;-76
2022/08/09 01:24:09;;;;;;;0.20;0.20;;;16.20;99.90;;;;;;5092112;28;20054;-75
2022/08/09 01:26:53;;;;;;;0.50;0.50;;;16.10;99.90;;;;;;5091926;28;20103;-76
2022/08/09 01:29:45;;;;;;;0.10;0.10;;;15.80;99.90;;;;;;5092094;28;20024;-76
2022/08/09 01:32:14;;;;;;;0.10;0.10;;;15.70;99.90;;;;;;5090502;28;20095;-76
2022/08/09 01:34:43;;;;;;;0.10;0.10;;;15.80;99.90;;;;;;5091954;28;20369;-76
2022/08/09 01:37:11;;;;;;;0.10;0.10;;;15.90;99.90;;;;;;5091857;28;20433;-76
2022/08/09 01:39:39;;;;;;;0.10;0.10;;;15.90;99.90;;;;;;5092032;28;20024;-75
2022/08/09 01:42:07;;;;;;;0.10;0.10;;;16.00;99.90;;;;;;5090654;28;20016;-75
2022/08/09 01:44:33;;;;;;;0.10;0.10;;;16.20;99.90;;;;;;5090720;28;20035;-75
2022/08/09 01:47:01;;;;;;;0.20;0.20;;;16.20;99.90;;;;;;5091722;28;20027;-76
2022/08/09 01:49:30;;;;;;;0.20;0.20;;;16.10;99.90;;;;;;5090537;28;20506;-76
2022/08/09 01:52:02;;;;;;;0.20;0.20;;;16.10;99.90;;;;;;5093889;28;20032;-76
2022/08/09 01:54:45;;;;;;;0.30;0.30;;;16.10;99.90;;;;;;5094739;28;20035;-76
2022/08/09 01:57:25;;;;;;;0.10;0.10;;;16.10;99.90;;;;;;5095681;28;20511;-76
2022/08/09 01:59:54;;;;;;;0.10;0.10;;;16.20;99.90;;;;;;5094609;28;20426;-76
2022/08/09 02:02:24;;;;;;;0.10;0.10;;;16.10;99.90;;;;;;5077442;28;20387;-76
2022/08/09 02:04:52;;;;;;;0.10;0.10;;;16.10;99.90;;;;;;5095655;28;20040;-76
2022/08/09 02:07:20;;;;;;;0.10;0.10;;;16.10;99.90;;;;;;5095468;28;20012;-76
2022/08/09 02:09:58;;;;;;;0.10;0.10;;;16.20;99.90;;;;;;5095675;28;20024;-76
2022/08/09 02:12:27;;;;;;;0.10;0.10;;;16.30;99.90;;;;;;5094340;28;20526;-76
2022/08/09 02:14:55;;;;;;;0.10;0.10;;;16.30;99.90;;;;;;5094225;28;20058;-76
2022/08/09 02:17:25;;;;;;;0.10;0.10;;;16.30;99.90;;;;;;5095253;28;20023;-76
2022/08/09 02:19:51;;;;;;;0.10;0.10;;;16.20;99.90;;;;;;5094298;28;20082;-76
2022/08/09 02:22:42;;;;;;;0.10;0.10;;;16.20;99.90;;;;;;5095268;28;20028;-76
2022/08/09 02:25:24;;;;;;;0.17;0.17;;;16.10;99.90;;;;;;5093957;28;20111;-76
2022/08/09 02:27:58;;;;;;;0.28;0.28;;;16.00;99.90;;;;;;5094208;28;20013;-75
2022/08/09 02:30:25;;;;;;;1.80;0.28;;;16.10;99.90;;;;;;5095444;28;20028;-76
2022/08/09 02:32:52;;;;;;;0.10;0.10;;;16.30;99.90;;;;;;5095233;28;20024;-76
2022/08/09 02:35:23;;;;;;;0.10;0.10;;;16.30;99.90;;;;;;5095103;28;20039;-76
2022/08/09 02:37:59;;;;;;;0.10;0.10;;;16.40;99.90;;;;;;5076860;28;20426;-76
2022/08/09 02:40:25;;;;;;;0.45;0.45;;;16.20;99.90;;;;;;5093958;28;20535;-76
2022/08/09 02:42:53;;;;;;;0.10;0.10;;;16.00;99.90;;;;;;5094926;28;20038;-76
2022/08/09 02:45:28;;;;;;;0.20;0.20;;;15.80;99.90;;;;;;5093635;28;20063;-76
2022/08/09 02:47:59;;;;;;;0.20;0.20;;;15.80;99.90;;;;;;5093615;28;20541;-76
2022/08/09 02:50:32;;;;;;;0.20;0.20;;;15.80;99.90;;;;;;5093708;28;20035;-76
2022/08/09 02:53:02;;;;;;;0.65;0.40;;;15.80;99.90;;;;;;5094965;28;20031;-76
2022/08/09 02:55:29;;;;;;;0.10;0.10;;;15.80;99.90;;;;;;5094657;28;20392;-75
2022/08/09 02:57:57;;;;;;;0.10;0.10;;;15.90;99.90;;;;;;5093311;28;20055;-76
2022/08/09 03:00:23;;;;;;;0.17;0.17;;;15.80;99.90;;;;;;5093180;28;20052;-76
2022/08/09 03:02:55;;;;;;;0.25;0.25;;;15.70;99.90;;;;;;5092695;28;20027;-76
2022/08/09 03:05:22;;;;;;;0.13;0.13;;;15.50;99.90;;;;;;5094545;28;20032;-76
2022/08/09 03:07:49;;;;;;;3.20;1.55;;;15.20;99.90;;;;;;5094414;28;20103;-76
2022/08/09 03:10:15;;;;;;;0.35;0.35;;;15.20;99.90;;;;;;5094608;28;20099;-75
2022/08/09 03:12:43;;;;;;;0.20;0.20;;;14.90;99.90;;;;;;5094494;28;20039;-76
2022/08/09 03:15:10;;;;;;;0.38;0.38;;;14.70;99.90;;;;;;5094322;28;20093;-76
2022/08/09 03:17:37;;;;;;;0.20;0.20;;;14.70;99.90;;;;;;5093245;28;20043;-76
2022/08/09 03:20:05;;;;;;;0.10;0.10;;;14.70;99.90;;;;;;5093171;28;20318;-76
2022/08/09 03:22:34;;;;;;;0.15;0.15;;;14.60;99.90;;;;;;5093065;28;20391;-76
2022/08/09 03:25:00;;;;;;;0.10;0.10;;;14.90;99.90;;;;;;5094125;28;20498;-76
2022/08/09 03:27:27;;;;;;;0.10;0.10;;;15.20;99.90;;;;;;5094055;28;20028;-76
2022/08/09 03:29:55;;;;;;;0.10;0.10;;;15.30;99.90;;;;;;5094132;28;20020;-76
2022/08/09 03:32:22;;;;;;;0.10;0.10;;;15.20;99.90;;;;;;5092908;28;20475;-76
2022/08/09 03:34:48;;;;;;;0.30;0.30;;;15.50;99.90;;;;;;5094015;28;20034;-76
2022/08/09 03:37:14;;;;;;;0.10;0.10;;;15.70;99.90;;;;;;5075888;28;20024;-76
2022/08/09 03:39:40;;;;;;;0.10;0.10;;;15.60;99.90;;;;;;5092563;28;20028;-76
2022/08/09 03:42:05;;;;;;;0.10;0.10;;;16.00;99.90;;;;;;5093836;28;20028;-76
2022/08/09 03:44:31;;;;;;;0.10;0.10;;;16.10;99.90;;;;;;5092647;28;20433;-77
2022/08/09 03:46:57;;;;;;;0.10;0.10;;;15.70;99.90;;;;;;5092440;28;20410;-76
2022/08/09 03:49:26;;;;;;;0.10;0.10;;;15.60;99.90;;;;;;5094008;28;20474;-77
2022/08/09 03:51:56;;;;;;;0.10;0.10;;;15.80;99.90;;;;;;5075586;28;20032;-76
2022/08/09 03:54:25;;;;;;;0.20;0.20;;;15.70;99.90;;;;;;5092294;28;20028;-77
2022/08/09 03:56:52;;;;;;;0.30;0.30;;;15.60;99.90;;;;;;5092530;28;20028;-76
2022/08/09 03:59:18;;;;;;;0.10;0.10;;;15.50;99.90;;;;;;5093681;28;20061;-76
2022/08/09 04:01:45;;;;;;;0.30;0.30;;;15.50;99.90;;;;;;5092279;28;20028;-76
2022/08/09 04:04:12;;;;;;;0.10;0.10;;;15.50;99.90;;;;;;5075482;28;20027;-76
2022/08/09 04:06:38;;;;;;;2.03;0.82;;;15.80;99.90;;;;;;5093983;28;20065;-77
2022/08/09 04:09:06;;;;;;;0.57;0.57;;;15.80;99.90;;;;;;5093917;28;20016;-76
2022/08/09 04:11:49;;;;;;;0.10;0.10;;;15.60;99.90;;;;;;5093954;28;20032;-76
2022/08/09 04:14:17;;;;;;;0.10;0.10;;;15.30;99.90;;;;;;5091690;28;20020;-76
2022/08/09 04:16:43;;;;;;;0.10;0.10;;;15.30;99.90;;;;;;5092548;28;20108;-76
2022/08/09 04:19:08;;;;;;;0.13;0.13;;;15.20;99.90;;;;;;5093674;28;20483;-75
2022/08/09 04:21:34;;;;;;;0.10;0.10;;;15.00;99.90;;;;;;5092359;28;20059;-76
2022/08/09 04:24:00;;;;;;;0.10;0.10;;;14.90;99.90;;;;;;5092655;28;20047;-76
2022/08/09 04:26:25;;;;;;;0.40;0.40;;;15.10;99.90;;;;;;5075323;28;20034;-76
2022/08/09 04:28:51;;;;;;;0.50;0.50;;;15.10;99.90;;;;;;5093830;28;20023;-75
2022/08/09 04:31:17;;;;;;;0.10;0.10;;;15.10;99.90;;;;;;5093546;28;20059;-76
2022/08/09 04:33:42;;;;;;;7.32;1.45;;;15.20;99.90;;;;;;5092454;28;20035;-76
2022/08/09 04:36:08;;;;;;;0.13;0.13;;;15.50;99.90;;;;;;5093452;28;20099;-76
2022/08/09 04:38:34;;;;;;;0.10;0.10;;;15.40;99.90;;;;;;5092787;28;20157;-76
2022/08/09 04:41:00;;;;;;;0.10;0.10;;;15.60;99.90;;;;;;5091969;28;20498;-76
2022/08/09 04:43:25;;;;;;;0.10;0.10;;;15.80;99.90;;;;;;5092002;28;20593;-76
2022/08/09 04:45:51;;;;;;;0.13;0.13;;;15.70;99.90;;;;;;5093179;28;20027;-76
2022/08/09 04:48:17;;;;;;;0.17;0.17;;;15.70;99.90;;;;;;5092914;28;20043;-76
2022/08/09 04:50:43;;;;;;;0.10;0.10;;;15.80;99.90;;;;;;5091504;28;20024;-77
2022/08/09 04:53:10;;;;;;;0.10;0.10;;;15.70;99.90;;;;;;5091398;28;20036;-76
2022/08/09 04:55:39;;;;;;;0.45;0.43;;;15.70;99.90;;;;;;5089048;28;20067;-77
2022/08/09 04:58:06;;;;;;;0.50;0.50;;;15.70;99.90;;;;;;5086561;28;20024;-76
2022/08/09 05:00:33;;;;;;;0.10;0.10;;;15.80;99.90;;;;;;5092513;28;20103;-76
2022/08/09 05:03:03;;;;;;;0.10;0.10;;;15.70;99.90;;;;;;5091093;28;20024;-76
2022/08/09 05:05:29;;;;;;;0.10;0.10;;;15.90;99.90;;;;;;5091207;28;20082;-77
2022/08/09 05:07:56;;;;;;;1.77;1.67;;;16.30;99.90;;;;;;5077477;28;20465;-75
2022/08/09 05:10:21;;;;;;;0.20;0.20;;;16.30;99.90;;;;;;5087203;28;20028;-75
2022/08/09 05:12:47;;;;;;;0.10;0.10;;;16.00;99.90;;;;;;5084577;28;20028;-76
2022/08/09 05:15:13;;;;;;;0.10;0.10;;;16.20;99.90;;;;;;5081223;28;20028;-76
2022/08/09 05:17:39;;;;;;;0.10;0.10;;;16.40;99.90;;;;;;5085941;28;20028;-76
2022/08/09 05:20:06;;;;;;;0.50;0.50;;;16.40;99.90;;;;;;5092082;28;20387;-76
2022/08/09 05:22:32;;;;;;;0.17;0.17;;;16.40;99.90;;;;;;5092036;28;20418;-77
2022/08/09 05:24:57;;;;;;;0.10;0.10;;;16.60;99.90;;;;;;5092297;28;20145;-77
2022/08/09 05:27:23;;;;;;;0.10;0.10;;;16.50;99.90;;;;;;5097439;28;20066;-77
2022/08/09 05:29:49;;;;;;;0.20;0.20;;;16.70;99.90;;;;;;5097901;28;20054;-77
2022/08/09 05:32:15;;;;;;;0.10;0.10;;;16.90;99.90;;;;;;5096348;28;20043;-72
2022/08/09 05:34:40;;;;;;;0.10;0.10;;;17.10;99.90;;;;;;5097047;28;20047;-76
2022/08/09 05:37:06;;;;;;;0.20;0.20;;;17.30;99.90;;;;;;5098439;28;20024;-77
2022/08/09 05:39:33;;;;;;;0.10;0.10;;;17.40;99.90;;;;;;5099113;28;20082;-77
2022/08/09 05:41:59;;;;;;;0.10;0.10;;;17.40;99.90;;;;;;5081015;28;20111;-76
2022/08/09 05:44:26;;;;;;;0.10;0.10;;;17.20;99.90;;;;;;5097708;28;20162;-76
2022/08/09 05:46:52;;;;;;;0.17;0.17;;;17.20;99.90;;;;;;5080445;28;20043;-76
2022/08/09 05:49:18;;;;;;;0.10;0.10;;;17.00;99.90;;;;;;5098854;28;20016;-77
2022/08/09 05:51:44;;;;;;;0.20;0.20;;;16.90;99.90;;;;;;5097737;28;20390;-76
2022/08/09 05:54:09;;;;;;;0.10;0.10;;;17.10;99.90;;;;;;5097913;28;20552;-76
2022/08/09 05:56:35;;;;;;;0.20;0.20;;;17.40;99.90;;;;;;5097350;28;20024;-77
2022/08/09 05:59:01;;;;;;;0.25;0.25;;;17.50;99.90;;;;;;5080289;28;20122;-76
2022/08/09 06:01:28;;;;;;;0.10;0.10;;;17.50;99.90;;;;;;5097254;28;20073;-77
2022/08/09 06:03:55;;;;;;;0.10;0.10;;;17.50;99.90;;;;;;5098668;28;20097;-77
2022/08/09 06:06:22;;;;;;;0.10;0.10;;;17.70;99.90;;;;;;5097331;28;20048;-77
2022/08/09 06:08:48;;;;;;;0.10;0.10;;;17.70;99.90;;;;;;5097356;28;20122;-77
2022/08/09 06:11:14;;;;;;;0.30;0.30;;;17.80;99.90;;;;;;5098582;28;20027;-77
2022/08/09 06:13:40;;;;;;;0.10;0.10;;;17.80;99.90;;;;;;5080085;28;20020;-77
2022/08/09 06:16:06;;;;;;;0.10;0.10;;;17.70;99.90;;;;;;5094511;28;20025;-77
2022/08/09 06:18:33;;;;;;;0.00;0.00;;;17.70;99.90;;;;;;5078236;28;20077;-76
2022/08/09 06:21:01;;;;;;;0.47;0.47;;;17.80;99.90;;;;;;5086917;28;20035;-76
2022/08/09 06:23:31;;;;;;;0.10;0.10;;;17.80;99.90;;;;;;5098471;28;20024;-76
2022/08/09 06:25:58;;;;;;;0.32;0.32;;;17.90;99.90;;;;;;5097102;28;20024;-77
2022/08/09 06:28:24;;;;;;;1.60;0.47;;;18.00;99.90;;;;;;5098249;28;20012;-77
2022/08/09 06:30:49;;;;;;;0.10;0.10;;;18.00;99.90;;;;;;5078275;28;20033;-77
2022/08/09 06:33:15;;;;;;;0.17;0.17;;;18.10;99.90;;;;;;5077962;28;20024;-77
2022/08/09 06:35:41;;;;;;;2.50;2.30;;;18.20;99.90;;;;;;5059932;28;20073;-77
2022/08/09 06:38:07;;;;;;;0.20;0.20;;;18.40;99.90;;;;;;5074624;28;20104;-77
2022/08/09 06:40:33;;;;;;;0.10;0.10;;;18.40;99.90;;;;;;5073954;28;20033;-77
2022/08/09 06:43:02;;;;;;;0.10;0.10;;;18.70;99.90;;;;;;5093540;28;20116;-75
2022/08/09 06:45:28;;;;;;;0.05;0.05;;;18.80;99.90;;;;;;5074265;28;20025;-75
2022/08/09 06:47:53;;;;;;;0.57;0.40;;;19.00;99.90;;;;;;5074518;28;20017;-75
2022/08/09 06:50:19;;;;;;;0.38;0.38;;;19.00;99.90;;;;;;5074664;28;20365;-75
2022/08/09 06:52:46;;;;;;;0.22;0.22;;;18.90;99.90;;;;;;5073302;28;20024;-75
2022/08/09 06:55:17;;;;;;;2.78;2.58;;;18.80;99.90;;;;;;5074331;28;20107;-75
2022/08/09 06:57:43;;;;;;;0.10;0.10;;;18.90;99.90;;;;;;5074054;28;20104;-75
2022/08/09 07:00:09;;;;;;;0.32;0.32;;;19.00;99.90;;;;;;5073075;28;20115;-77
2022/08/09 07:02:35;;;;;;;0.80;0.80;;;19.20;99.90;;;;;;5073099;28;20502;-77
2022/08/09 07:05:02;;;;;;;0.75;0.30;;;19.30;99.90;;;;;;5077012;28;20042;-77
2022/08/09 07:07:28;;;;;;;0.57;0.57;;;19.30;99.90;;;;;;5085093;28;20492;-78
2022/08/09 07:09:54;;;;;;;0.52;0.28;;;19.30;99.90;;;;;;5075910;28;20024;-77
2022/08/09 07:12:20;;;;;;;0.00;0.00;;;19.40;99.90;;;;;;5074786;28;20029;-77
2022/08/09 07:14:45;;;;;;;0.17;0.17;;;19.70;99.90;;;;;;5087490;28;20024;-77
2022/08/09 07:17:13;;;;;;;0.30;0.30;;;19.80;99.90;;;;;;5095657;28;20041;-77
2022/08/09 07:19:39;;;;;;;0.10;0.10;;;19.90;99.90;;;;;;5095044;28;20507;-77
2022/08/09 07:22:05;;;;;;;0.00;0.00;;;20.00;99.90;;;;;;5077694;28;20032;-77
2022/08/09 07:24:31;;;;;;;0.35;0.35;;;20.00;99.90;;;;;;5094272;28;20046;-78
2022/08/09 07:26:57;;;;;;;0.20;0.20;;;20.20;99.90;;;;;;5095629;28;20028;-77
2022/08/09 07:29:23;;;;;;;0.13;0.13;;;20.30;99.90;;;;;;5095747;28;20034;-77
2022/08/09 07:31:49;;;;;;;1.17;0.45;;;20.30;99.90;;;;;;5093868;28;20032;-77
2022/08/09 07:34:15;;;;;;;0.10;0.10;;;20.40;99.90;;;;;;5077564;28;20054;-77
2022/08/09 07:36:41;;;;;;;0.10;0.10;;;20.60;99.90;;;;;;5094152;28;20028;-79
2022/08/09 07:39:07;;;;;;;0.28;0.28;;;20.70;99.90;;;;;;5092681;28;20075;-77
2022/08/09 07:41:33;;;;;;;0.43;0.43;;;20.90;99.90;;;;;;5094487;28;20080;-77
2022/08/09 07:43:59;;;;;;;1.38;0.75;;;21.00;99.90;;;;;;5093283;28;20061;-77
2022/08/09 07:46:24;;;;;;;0.30;0.30;;;21.00;99.90;;;;;;5092994;28;20548;-77
2022/08/09 07:48:50;;;;;;;0.15;0.15;;;21.00;99.90;;;;;;5094438;28;20098;-77
2022/08/09 07:51:17;;;;;;;0.52;0.52;;;21.00;99.60;;;;;;5093464;28;20020;-75
2022/08/09 07:53:43;;;;;;;0.38;0.38;;;21.10;99.40;;;;;;5094333;28;20031;-77
2022/08/09 07:56:10;;;;;;;5.22;0.85;;;21.10;99.00;;;;;;5092770;28;20028;-75
2022/08/09 07:58:36;;;;;;;1.25;1.17;;;21.10;99.00;;;;;;5093816;28;20487;-75
2022/08/09 08:01:02;;;;;;;0.10;0.10;;;21.30;98.20;;;;;;5092660;28;20063;-75
2022/08/09 08:03:30;;;;;;;0.25;0.25;;;21.40;97.60;;;;;;5092501;28;20095;-75
2022/08/09 08:05:56;;;;;;;1.13;1.08;;;21.50;96.60;;;;;;5092250;28;20503;-76
2022/08/09 08:08:23;;;;;;;0.15;0.15;;;21.80;96.50;;;;;;5093045;28;20028;-74
2022/08/09 08:10:49;;;;;;;0.00;0.00;;;22.10;95.50;;;;;;5094445;28;20030;-76
2022/08/09 08:13:16;;;;;;;0.55;0.55;;;22.20;95.80;;;;;;5076099;28;20111;-76
2022/08/09 08:15:42;;;;;;;0.00;0.00;;;22.40;93.90;;;;;;5092113;28;20038;-76
2022/08/09 08:18:07;;;;;;;0.05;0.05;;;22.50;94.00;;;;;;5092192;28;20020;-76
2022/08/09 08:20:34;;;;;;;0.17;0.17;;;22.60;92.70;;;;;;5093758;28;20028;-76
2022/08/09 08:23:04;;;;;;;0.10;0.10;;;22.60;92.30;;;;;;5091916;28;20499;-76
2022/08/09 08:25:29;;;;;;;0.63;0.63;;;22.90;91.40;;;;;;5091095;28;20020;-77
2022/08/09 08:27:55;;;;;;;0.52;0.38;;;23.10;90.40;;;;;;5092540;28;20024;-76
2022/08/09 08:30:21;;;;;;;0.20;0.20;;;23.40;89.10;;;;;;5073992;28;20034;-76
2022/08/09 08:32:47;;;;;;;0.10;0.10;;;23.40;87.90;;;;;;5091088;28;20102;-77
2022/08/09 08:35:13;;;;;;;0.30;0.30;;;23.50;84.90;;;;;;5092308;28;20059;-77
2022/08/09 08:37:39;;;;;;;0.70;0.45;;;23.40;84.00;;;;;;5092244;28;20069;-77
2022/08/09 08:40:06;;;;;;;3.10;0.70;;;23.50;84.90;;;;;;5092271;28;20047;-77
2022/08/09 08:42:32;;;;;;;0.20;0.20;;;23.50;84.60;;;;;;5092306;28;20052;-76
2022/08/09 08:44:59;;;;;;;0.73;0.73;;;23.70;83.70;;;;;;5092202;28;20028;-77
2022/08/09 08:47:26;;;;;;;0.50;0.50;;;23.50;80.60;;;;;;5090861;28;20046;-76
2022/08/09 08:49:54;;;;;;;0.10;0.10;;;23.70;80.40;;;;;;5091540;28;20023;-76
2022/08/09 08:52:25;;;;;;;0.13;0.13;;;23.80;79.10;;;;;;5091121;28;20027;-75
2022/08/09 08:54:55;;;;;;;0.10;0.10;;;24.20;77.90;;;;;;5074011;28;20100;-76
2022/08/09 08:57:23;;;;;;;0.43;0.38;;;24.30;76.60;;;;;;5092572;28;20032;-76
2022/08/09 08:59:50;;;;;;;0.68;0.68;;;24.60;73.10;;;;;;5090664;28;20111;-76
2022/08/09 09:02:25;;;;;;;1.55;0.90;;;24.70;71.00;;;;;;5090542;28;20028;-76
2022/08/09 09:04:56;;;;;;;1.45;0.30;;;24.40;71.50;;;;;;5090881;28;20052;-76
2022/08/09 09:07:27;;;;;;;5.95;0.90;;;24.70;71.30;;;;;;5090942;28;20364;-75
2022/08/09 09:09:55;;;;;;;1.42;0.77;;;25.00;70.10;;;;;;5092127;28;20595;-76
2022/08/09 09:12:26;;;;;;;0.00;0.00;;;25.40;68.20;;;;;;5092284;28;20100;-76
2022/08/09 09:14:52;;;;;;;0.10;0.10;;;25.30;66.20;;;;;;5092027;28;20047;-76
2022/08/09 09:17:18;;;;;;;0.75;0.75;;;25.30;68.10;;;;;;5090665;28;20399;-75
2022/08/09 09:19:45;;;;;;;0.55;0.55;;;25.60;66.60;;;;;;5092051;28;20094;-76
2022/08/09 09:22:15;;;;;;;2.80;0.65;;;25.60;63.90;;;;;;5090755;28;20031;-76
2022/08/09 09:24:59;;;;;;;0.00;0.00;;;25.70;63.50;;;;;;5091873;28;20044;-75
2022/08/09 09:27:26;;;;;;;0.52;0.52;;;25.80;62.60;;;;;;5091765;28;20262;-76
2022/08/09 09:29:53;;;;;;;0.95;0.95;;;25.90;62.00;;;;;;5091877;28;20028;-76
2022/08/09 09:32:24;;;;;;;0.00;0.00;;;26.00;60.20;;;;;;5090926;28;20051;-75
2022/08/09 09:35:09;;;;;;;0.47;0.22;;;26.10;60.50;;;;;;5073673;28;20024;-75
2022/08/09 09:37:36;;;;;;;0.52;0.32;;;26.20;60.60;;;;;;5091648;28;20509;-75
2022/08/09 09:40:23;;;;;;;0.10;0.10;;;26.50;58.80;;;;;;5110896;22;20036;-89
2022/08/09 09:44:03;;;;;;;1.13;0.63;;;26.50;58.70;;;;;;5083299;28;20044;-89
2022/08/09 09:47:30;;;;;;;0.20;0.20;;;26.60;58.10;;;;;;5055517;28;20043;-89
2022/08/09 09:53:17;;;;;;;0.05;0.05;;;27.00;56.10;;;;;;5076042;28;20062;-89
2022/08/09 09:56:01;;;;;;;0.00;0.00;;;27.10;54.40;;;;;;5085489;28;20424;-89
2022/08/09 09:58:47;;;;;;;0.00;0.00;;;27.50;55.60;;;;;;5054171;28;20036;-90
2022/08/09 10:01:20;;;;;;;0.00;0.00;;;27.70;54.90;;;;;;5054157;28;20029;-90
2022/08/09 10:03:48;;;;;;;0.40;0.40;;;27.80;54.60;;;;;;5070965;28;20021;-90
2022/08/09 10:06:16;;;;;;;0.00;0.00;;;27.70;53.60;;;;;;5068659;28;20611;-90
2022/08/09 10:09:11;;;;;;;0.15;0.15;;;27.80;52.40;;;;;;5054270;28;20024;-90
2022/08/09 10:12:16;;;;;;;0.20;0.20;;;27.80;51.00;;;;;;5056067;28;20037;-90
2022/08/09 10:15:32;;;;;;;0.00;0.00;;;27.90;52.00;;;;;;5057866;28;20032;-91
2022/08/09 10:21:51;;;;;;;0.00;0.00;;;27.90;53.40;;;;;;5097341;28;20025;-90
2022/08/09 10:24:28;;;;;;;0.10;0.10;;;28.40;53.40;;;;;;5077237;28;20052;-90
2022/08/09 10:26:55;;;;;;;1.13;0.20;;;28.60;51.70;;;;;;5060337;28;20023;-90
2022/08/09 10:29:22;;;;;;;0.28;0.22;;;28.50;51.10;;;;;;5060570;28;20021;-89
2022/08/09 10:32:13;;;;;;;0.52;0.38;;;28.40;51.00;;;;;;5076504;28;20033;-90
2022/08/09 10:35:17;;;;;;;0.00;0.00;;;28.70;50.60;;;;;;5060186;28;20024;-88
2022/08/09 10:40:29;;;;;;;0.28;0.28;;;29.20;49.30;;;;;;5092989;28;20396;-76
2022/08/09 10:42:55;;;;;;;0.10;0.10;;;29.00;49.70;;;;;;5095836;28;20058;-76
2022/08/09 10:45:23;;;;;;;0.20;0.20;;;29.20;49.00;;;;;;5095486;28;20047;-76
2022/08/09 10:48:14;;;;;;;0.45;0.43;;;29.30;47.20;;;;;;5094619;28;20086;-76
2022/08/09 10:51:05;;;;;;;0.30;0.30;;;29.40;45.10;;;;;;5094407;28;20024;-76
2022/08/09 10:53:40;;;;;;;0.00;0.00;;;29.10;47.50;;;;;;5093292;28;20020;-75
2022/08/09 10:56:23;;;;;;;0.10;0.10;;;29.30;48.30;;;;;;5094179;28;20451;-76
2022/08/09 10:58:55;;;;;;;0.00;0.00;;;29.20;48.30;;;;;;5076662;28;20182;-75
2022/08/09 11:01:38;;;;;;;6.00;1.20;;;29.20;48.80;;;;;;5094776;28;20099;-75
2022/08/09 11:04:12;;;;;;;0.20;0.20;;;29.00;48.10;;;;;;5094366;28;20027;-76
2022/08/09 11:06:42;;;;;;;0.10;0.10;;;29.10;49.10;;;;;;5094127;28;20016;-76
2022/08/09 11:09:10;;;;;;;0.88;0.52;;;29.60;46.80;;;;;;5076765;28;20477;-75
2022/08/09 11:11:54;;;;;;;0.90;0.40;;;29.70;44.60;;;;;;5094212;28;20020;-76
2022/08/09 11:14:56;;;;;;;0.47;0.47;;;29.90;46.50;;;;;;5092976;28;20024;-75
2022/08/09 11:17:21;;;;;;;0.30;0.30;;;29.90;47.90;;;;;;5076272;28;20129;-75
2022/08/09 11:20:00;;;;;;;0.43;0.43;;;30.10;46.50;;;;;;5093397;28;20457;-75
2022/08/09 11:22:44;;;;;;;1.45;0.63;;;30.10;47.20;;;;;;5094198;28;20028;-75
2022/08/09 11:25:11;;;;;;;0.10;0.10;;;30.30;46.20;;;;;;5093543;28;20029;-76
2022/08/09 11:27:40;;;;;;;0.20;0.10;;;30.30;45.30;;;;;;5093984;28;20025;-75
2022/08/09 11:30:10;;;;;;;0.00;0.00;;;30.20;45.60;;;;;;5092965;28;20020;-76
2022/08/09 11:32:49;;;;;;;1.65;0.60;;;30.20;44.70;;;;;;5092618;28;20092;-76
2022/08/09 11:35:18;;;;;;;0.15;0.15;;;29.80;44.60;;;;;;5094126;28;20030;-76
2022/08/09 11:37:46;;;;;;;0.38;0.32;;;29.40;45.50;;;;;;5092842;28;20039;-77
2022/08/09 11:40:14;;;;;;;0.03;0.03;;;29.70;42.40;;;;;;5092532;28;20039;-78
2022/08/09 11:42:45;;;;;;;0.00;0.00;;;29.80;42.80;;;;;;5094043;28;20028;-76
2022/08/09 11:45:23;;;;;;;0.10;0.10;;;30.00;44.40;;;;;;5094037;28;20027;-76
2022/08/09 11:47:52;;;;;;;0.35;0.35;;;30.20;43.20;;;;;;5093700;28;20031;-76
2022/08/09 11:50:20;;;;;;;0.17;0.17;;;30.50;44.60;;;;;;5093610;28;20016;-75
2022/08/09 11:52:58;;;;;;;0.00;0.00;;;30.40;42.80;;;;;;5092061;28;20024;-77
2022/08/09 11:55:36;;;;;;;7.32;0.73;;;29.80;42.90;;;;;;5093021;28;20447;-75
2022/08/09 11:58:14;;;;;;;0.10;0.10;;;30.00;43.20;;;;;;5076272;28;20035;-75
2022/08/09 12:01:02;;;;;;;0.85;0.60;;;30.10;43.00;;;;;;5095884;28;20031;-77
2022/08/09 12:03:28;;;;;;;0.00;0.00;;;29.80;43.90;;;;;;5097483;28;20117;-77
2022/08/09 12:05:59;;;;;;;0.10;0.10;;;29.20;44.60;;;;;;5096577;28;20024;-77
2022/08/09 12:08:27;;;;;;;1.20;0.97;;;29.10;43.90;;;;;;5097030;28;20024;-77
2022/08/09 12:10:58;;;;;;;0.40;0.40;;;28.70;44.40;;;;;;5094331;28;20073;-77
2022/08/09 12:13:27;;;;;;;0.00;0.00;;;28.40;44.60;;;;;;5094763;28;20035;-78
2022/08/09 12:16:05;;;;;;;0.50;0.50;;;28.40;44.80;;;;;;5082371;28;20024;-78
2022/08/09 12:18:32;;;;;;;0.00;0.00;;;28.60;44.90;;;;;;5097444;28;20057;-76
2022/08/09 12:21:01;;;;;;;0.60;0.35;;;28.50;44.80;;;;;;5096552;28;20028;-74
2022/08/09 12:23:27;;;;;;;6.22;2.63;;;28.50;44.10;;;;;;5092146;28;20110;-73
2022/08/09 12:25:54;;;;;;;0.88;0.30;;;28.40;43.60;;;;;;5093126;28;20020;-74
2022/08/09 12:28:22;;;;;;;0.00;0.00;;;28.20;44.00;;;;;;5092919;28;20480;-75
2022/08/09 12:30:49;;;;;;;0.13;0.13;;;28.20;45.40;;;;;;5091898;28;20043;-75
2022/08/09 12:33:16;;;;;;;1.17;0.85;;;28.30;45.20;;;;;;5093042;28;20020;-75
2022/08/09 12:35:42;;;;;;;0.08;0.08;;;28.60;44.90;;;;;;5091266;28;20513;-73
2022/08/09 12:38:24;;;;;;;0.25;0.25;;;28.50;44.10;;;;;;5092700;28;20020;-73
2022/08/09 12:40:51;;;;;;;0.20;0.20;;;28.40;44.60;;;;;;5092768;28;20062;-73
2022/08/09 12:43:22;;;;;;;0.00;0.00;;;28.30;44.20;;;;;;5091314;28;20031;-73
2022/08/09 12:45:49;;;;;;;0.28;0.28;;;28.20;43.30;;;;;;5092568;28;20027;-73
2022/08/09 12:48:16;;;;;;;0.63;0.60;;;27.80;43.10;;;;;;5091242;28;20016;-73
2022/08/09 12:50:43;;;;;;;1.13;0.35;;;27.60;44.50;;;;;;5092503;28;20356;-73
2022/08/09 12:53:36;;;;;;;0.15;0.15;;;27.70;44.30;;;;;;5092518;28;20024;-73
2022/08/09 12:56:09;;;;;;;0.40;0.40;;;27.60;44.00;;;;;;5092452;28;20021;-73
2022/08/09 12:58:37;;;;;;;0.00;0.00;;;27.70;43.30;;;;;;5092450;28;20036;-73
2022/08/09 13:01:17;;;;;;;0.00;0.00;;;28.00;43.30;;;;;;5092456;28;20024;-74
2022/08/09 13:03:43;;;;;;;0.10;0.10;;;27.90;42.50;;;;;;5092261;28;20020;-72
2022/08/09 13:06:22;;;;;;;1.27;0.22;;;27.60;41.50;;;;;;5092482;28;20020;-73
2022/08/09 13:09:09;;;;;;;1.20;0.88;;;27.40;41.90;;;;;;5090930;28;20098;-74
2022/08/09 13:11:42;;;;;;;0.38;0.20;;;27.20;43.50;;;;;;5092334;28;20043;-73
2022/08/09 13:14:18;;;;;;;0.47;0.28;;;27.00;44.20;;;;;;5074489;28;20167;-74